Relevés horaires Eggishorn (Suisse)


Relevés horaires à Eggishorn - Lundi 22 Juill. 2019
Heure UTC1 Température [°C] Vent [km/h] Hum. [%] Pres.4 [hPa] Visi. [Km] Nébu. [octa] Préc.5 [mm] Cond.
2m. Res. Ros. Dir.2 Vit. Moy. Raf.3
23:00 10.7 10.4 5.1 O 5.6 -- 5.6 68 700(-0.2/3h) -- -- -- --
22:00 11.0 10.7 3.6 ONO 5.6 -- 11.1 60 700(0.1/3h) -- -- -- --
21:00 11.6 11 4.3 NNO 7.4 -- 16.7 61 700(0.1/3h) -- -- -- --
20:00 11.9 11.4 5.5 NO 7.4 -- 16.7 65 700(0.2/3h) -- -- -- --
19:00 11.9 11.4 5.2 NO 7.4 -- 13.0 63 700(-0.1/3h) -- -- -- --
18:00 12.1 12 4.5 NO 5.6 -- 20.4 60 700(-0.2/3h) -- -- -- --
17:00 12.6 12.2 5.8 NNO 7.4 -- 14.8 63 700(-0.4/3h) -- -- -- --
16:00 14.7 14.6 5.0 SSO 7.4 -- 18.5 52 700(-0.3/3h) -- -- -- --
15:00 15.0 15.0 4.8 O 5.6 -- 20.4 50 700(-0.2/3h) -- -- -- --
14:00 13.9 13.9 4.8 NNO 3.7 -- 16.7 54 700(-0.1/3h) -- -- -- --
13:00 13.4 13.4 4.5 SSO 3.7 -- 20.4 55 700(0.1/3h) -- -- -- --
12:00 12.9 12.5 5.4 NO 7.4 -- 18.5 60 700(0.3/3h) -- -- -- --
11:00 12.4 12.3 5.6 SSE 5.6 -- 18.5 63 700(0.5/3h) -- -- -- --
10:00 10.9 10.9 5.7 S 3.7 -- 16.7 70 700(0.6/3h) -- -- -- --
09:00 8.7 8.7 3.5 SO 3.7 -- 16.7 70 700(0.6/3h) -- -- -- --
08:00 9.0 9.0 5.1 E 3.7 -- 11.1 77 700(0.7/3h) -- -- -- --
07:00 8.1 8.1 4.4 ESE 1.9 -- 16.7 77 700(0.5/3h) -- -- -- --
06:00 7.8 6.6 0.7 N 7.4 -- 31.5 61 700(0.4/3h) -- -- -- --
05:00 7.4 6.6 1.3 ONO 5.6 -- 18.5 65 700(0.3/3h) -- -- -- --
04:00 7.5 4.9 -1.3 NNO 14.8 -- 25.9 54 700(0.0/3h) -- -- -- --
03:00 7.8 5.5 -1.0 O 13.0 -- 31.5 54 700(-0.2/3h) -- -- -- --
02:00 7.7 5.1 -0.6 ONO 14.8 -- 29.6 56 700(-0.3/3h) -- -- -- --
01:00 7.8 4.8 0.3 O 18.5 -- 31.5 59 700(0.1/3h) -- -- -- --
00:00 8.0 5.2 -0.4 O 16.7 -- 33.3 55 700(-0.1/3h) -- -- -- --

1 Coordinated Universal Time. Actuellement il est 14:00 locale et 12:00 UTC.

2 Le vent souffle depuis la direction indiquée vers la direction oposée.

3 Les rafales max. sont disponible 40 min après l'heure du relevé.

4 Pour les stations d'altitude (plus de 600m) le géopotentiel du niveau le plus proche de la pression obligatoire est indiqué.

5 Les stations disposant d'un diffuseur peuvent indiquer "trace". Cela signifie que des précipitations ont touchés le sol mais que la quantité est inférieure à 0.1 mm.

Copyright

Les données affichées sur cette page sont la propriété exclusive de Météo Suisse.

Récapitulatif de la journée
Température [°C] Vent [km/h] Ensoleillement4 [h] Precipitations totale5 [mm] Pression [Hpa]
Min1 Max.2 Moy.3 Max. Min Max.
7.4 15.6 0 33.3 10 h 30 min 0 700.0 700.0

1 Température minimale relevée entre 18:00 UTC la veille et 18:00 UTC le jour donné.

2 Température maximale relevée entre 06:00 UTC le jour donné et 06:00 UTC le lendemain.

3 Vent moyen de la journée basé sur les relevés horaires.

4 Ensoleillement en heures relevé entre 06:00 UTC la veille et 06:00 UTC le jour donné.

5 Précipitations totales tombées entre 06:00 UTC la jour donné et 06:00 UTC le lendemain.

Graphiques horaires